createdAt,value
2023-02-04T00:00:20.417Z,97507.54
2023-02-04T00:02:47.900Z,97505.10
2023-02-04T00:05:17.909Z,97503.59
2023-02-04T00:07:44.881Z,97503.92
2023-02-04T00:10:11.661Z,97497.34
2023-02-04T00:12:38.379Z,97495.77
2023-02-04T00:15:08.424Z,97495.09
2023-02-04T00:17:35.549Z,97494.09
2023-02-04T00:20:02.341Z,97486.25
2023-02-04T00:22:29.496Z,97490.23
2023-02-04T00:24:56.319Z,97490.81
2023-02-04T00:27:23.360Z,97487.71
2023-02-04T00:29:50.372Z,97488.52
2023-02-04T00:32:17.274Z,97491.73
2023-02-04T00:34:44.113Z,97496.28
2023-02-04T00:37:11.069Z,97493.73
2023-02-04T00:39:37.945Z,97486.67
2023-02-04T00:42:05.860Z,97488.80
2023-02-04T00:44:32.669Z,97485.17
2023-02-04T00:46:59.518Z,97485.35
2023-02-04T00:49:26.229Z,97485.35
2023-02-04T00:51:53.077Z,97482.25
2023-02-04T00:54:19.940Z,97475.36
2023-02-04T00:56:47.016Z,97477.66
2023-02-04T00:59:13.977Z,97481.35
2023-02-04T01:01:40.902Z,97480.27
2023-02-04T01:04:07.693Z,97476.75
2023-02-04T01:06:35.042Z,97484.19
2023-02-04T01:09:02.756Z,97477.65
2023-02-04T01:11:30.809Z,97479.29
2023-02-04T01:13:57.661Z,97471.71
2023-02-04T01:16:24.900Z,97467.98
2023-02-04T01:18:51.806Z,97462.11
2023-02-04T01:21:18.680Z,97457.93
2023-02-04T01:23:45.416Z,97457.62
2023-02-04T01:26:12.226Z,97456.99
2023-02-04T01:28:38.966Z,97454.02
2023-02-04T01:31:05.942Z,97452.98
2023-02-04T01:33:33.089Z,97452.19
2023-02-04T01:36:00.057Z,97447.39
2023-02-04T01:38:26.931Z,97443.61
2023-02-04T01:40:54.077Z,97444.18
2023-02-04T01:43:22.904Z,97440.69
2023-02-04T01:45:50.819Z,97435.45
2023-02-04T01:48:20.927Z,97436.94
2023-02-04T01:50:53.260Z,97439.57
2023-02-04T01:53:24.075Z,97434.12
2023-02-04T01:55:52.569Z,97430.09
2023-02-04T01:58:20.101Z,97424.73
2023-02-04T02:00:47.116Z,97423.70
2023-02-04T02:03:14.172Z,97424.13
2023-02-04T02:05:51.312Z,97419.88
2023-02-04T02:08:18.762Z,97416.27
2023-02-04T02:10:49.479Z,97420.97
2023-02-04T02:13:18.667Z,97423.70
2023-02-04T02:15:46.812Z,97421.04
2023-02-04T02:18:14.473Z,97424.71
2023-02-04T02:20:43.985Z,97427.09
2023-02-04T02:23:25.035Z,97427.58
2023-02-04T02:25:52.230Z,97429.33
2023-02-04T02:28:22.323Z,97431.56
2023-02-04T02:30:50.549Z,97435.54
2023-02-04T02:33:20.450Z,97447.64
2023-02-04T02:35:50.082Z,97451.41
2023-02-04T02:38:18.970Z,97455.49
2023-02-04T02:40:47.103Z,97461.48
2023-02-04T02:43:17.447Z,97472.10
2023-02-04T02:45:45.399Z,97477.30
2023-02-04T02:48:12.842Z,97463.42
2023-02-04T02:50:40.684Z,97463.19
2023-02-04T02:53:16.666Z,97464.52
2023-02-04T02:55:44.097Z,97466.02
2023-02-04T02:58:28.130Z,97467.48
2023-02-04T03:00:56.422Z,97463.15
2023-02-04T03:03:28.009Z,97463.23
2023-02-04T03:05:59.888Z,97462.13
2023-02-04T03:08:27.033Z,97471.52
2023-02-04T03:10:54.034Z,97471.06
2023-02-04T03:13:21.527Z,97490.02
2023-02-04T03:15:48.921Z,97498.95
2023-02-04T03:18:19.699Z,97502.02
2023-02-04T03:20:47.981Z,97508.27
2023-02-04T03:23:15.204Z,97514.02
2023-02-04T03:25:42.296Z,97511.98
2023-02-04T03:28:09.737Z,97519.33
2023-02-04T03:30:37.342Z,97516.88
2023-02-04T03:33:04.478Z,97526.85
2023-02-04T03:35:31.193Z,97530.32
2023-02-04T03:37:58.041Z,97535.98
2023-02-04T03:40:24.891Z,97541.27
2023-02-04T03:42:51.696Z,97545.48
2023-02-04T03:45:18.551Z,97549.60
2023-02-04T03:47:45.482Z,97561.25
2023-02-04T03:50:13.995Z,97566.49
2023-02-04T03:52:40.800Z,97573.72
2023-02-04T03:55:07.756Z,97573.52
2023-02-04T03:57:34.540Z,97583.92
2023-02-04T04:00:01.362Z,97590.46
2023-02-04T04:02:28.258Z,97597.80
2023-02-04T04:04:55.051Z,97596.47
2023-02-04T04:07:21.952Z,97604.86
2023-02-04T04:09:48.803Z,97607.45
2023-02-04T04:12:15.606Z,97609.35
2023-02-04T04:14:42.350Z,97615.89
2023-02-04T04:17:09.206Z,97623.45
2023-02-04T04:19:36.061Z,97627.39
2023-02-04T04:22:02.866Z,97636.73
2023-02-04T04:24:29.685Z,97647.05
2023-02-04T04:26:56.652Z,97653.17
2023-02-04T04:29:23.346Z,97668.23
2023-02-04T04:31:50.229Z,97679.86
2023-02-04T04:34:17.038Z,97686.62
2023-02-04T04:36:43.889Z,97697.85
2023-02-04T04:39:10.742Z,97714.83
2023-02-04T04:41:37.654Z,97725.83
2023-02-04T06:11:34.965Z,98287.22
2023-02-04T06:14:01.971Z,98325.17
2023-02-04T06:16:28.931Z,98331.15
2023-02-04T06:18:55.931Z,98335.17
2023-02-04T06:21:22.769Z,98349.71
2023-02-04T06:23:49.536Z,98367.19
2023-02-04T06:26:16.513Z,98380.79
2023-02-04T06:28:43.374Z,98391.98
2023-02-04T06:31:10.298Z,98421.91
2023-02-04T06:33:37.470Z,98423.46
2023-02-04T06:36:05.242Z,98432.50
2023-02-04T06:38:32.316Z,98463.70
2023-02-04T06:40:59.196Z,98478.69
2023-02-04T06:43:27.815Z,98493.80
2023-02-04T06:45:54.767Z,98496.14
2023-02-04T06:48:21.662Z,98511.88
2023-02-04T06:50:48.737Z,98517.73
2023-02-04T06:53:15.655Z,98543.89
2023-02-04T06:55:42.513Z,98564.64
2023-02-04T06:58:09.956Z,98585.41
2023-02-04T07:00:36.937Z,98599.77
2023-02-04T07:03:03.963Z,98601.48
2023-02-04T07:05:31.575Z,98614.35
2023-02-04T07:07:58.527Z,98624.66
2023-02-04T07:10:25.421Z,98643.86
2023-02-04T07:12:52.322Z,98652.50
2023-02-04T07:15:19.303Z,98666.95
2023-02-04T07:17:46.020Z,98682.11
2023-02-04T07:20:13.038Z,98686.89
2023-02-04T07:22:39.958Z,98696.02
2023-02-04T07:25:07.332Z,98703.94
2023-02-04T07:27:34.366Z,98711.00
2023-02-04T07:30:01.293Z,98735.05
2023-02-04T07:32:32.919Z,98747.80
2023-02-04T07:35:01.008Z,98753.56
2023-02-04T07:37:28.010Z,98768.86
2023-02-04T07:39:54.940Z,98782.38
2023-02-04T07:42:22.270Z,98779.71
2023-02-04T07:44:49.146Z,98805.20
2023-02-04T07:47:16.100Z,98810.92
2023-02-04T07:49:43.030Z,98820.73
2023-02-04T07:52:10.007Z,98834.02
2023-02-04T07:54:37.052Z,98841.98
2023-02-04T07:57:03.992Z,98862.23
2023-02-04T07:59:30.876Z,98862.73
2023-02-04T08:01:57.792Z,98871.54
2023-02-04T08:04:24.789Z,98886.48
2023-02-04T08:06:51.759Z,98889.05
2023-02-04T08:09:18.629Z,98895.66
2023-02-04T08:11:46.021Z,98909.17
2023-02-04T08:14:13.591Z,98908.16
2023-02-04T08:16:40.541Z,98924.25
2023-02-04T08:19:07.446Z,98930.77
2023-02-04T08:21:34.276Z,98935.52
2023-02-04T08:24:01.188Z,98935.45
2023-02-04T08:26:28.071Z,98941.27
2023-02-04T08:28:54.886Z,98946.63
2023-02-04T08:31:21.773Z,98952.95
2023-02-04T08:47:32.350Z,98990.73
2023-02-04T08:49:59.193Z,98999.50
2023-02-04T08:52:25.976Z,99001.52
2023-02-04T08:54:52.959Z,99007.19
2023-02-04T08:57:19.687Z,99018.18
2023-02-04T08:59:46.504Z,99016.93
2023-02-04T09:02:13.689Z,99027.63
2023-02-04T09:04:40.501Z,99036.56
2023-02-04T09:07:07.288Z,99044.98
2023-02-04T09:09:34.078Z,99049.94
2023-02-04T09:12:02.005Z,99067.39
2023-02-04T09:14:29.847Z,99069.42
2023-02-04T09:16:56.742Z,99080.73
2023-02-04T09:19:27.292Z,99080.20
2023-02-04T09:21:54.803Z,99083.95
2023-02-04T09:24:23.789Z,99095.23
2023-02-04T09:26:50.680Z,99093.48
2023-02-04T09:29:17.484Z,99095.80
2023-02-04T09:31:44.352Z,99101.84
2023-02-04T09:34:11.158Z,99108.17
2023-02-04T09:36:39.292Z,99105.80
2023-02-04T09:39:06.860Z,99107.90
2023-02-04T09:41:34.578Z,99111.59
2023-02-04T09:44:01.888Z,99115.20
2023-02-04T09:46:30.300Z,99120.77
2023-02-04T09:48:59.720Z,99127.55
2023-02-04T09:51:33.907Z,99127.89
2023-02-04T09:54:16.681Z,99132.46
2023-02-04T09:56:44.005Z,99134.77
2023-02-04T09:59:13.831Z,99143.99
2023-02-04T10:01:40.468Z,99147.57
2023-02-04T10:04:13.199Z,99144.44
2023-02-04T10:06:42.439Z,99152.91
2023-02-04T10:09:14.382Z,99162.46
2023-02-04T10:11:43.052Z,99167.20
2023-02-04T10:14:16.923Z,99169.35
2023-02-04T10:16:46.061Z,99170.33
2023-02-04T10:19:16.019Z,99181.31
2023-02-04T10:21:45.903Z,99194.64
2023-02-04T10:24:16.662Z,99197.39
2023-02-04T10:26:43.796Z,99197.42
2023-02-04T10:29:19.681Z,99188.70
2023-02-04T10:31:49.676Z,99193.29
2023-02-04T10:34:18.557Z,99191.73
2023-02-04T10:36:51.452Z,99192.33
2023-02-04T10:39:22.591Z,99204.95
2023-02-04T10:41:57.703Z,99210.27
2023-02-04T10:44:30.008Z,99224.16
2023-02-04T10:47:06.042Z,99219.48
2023-02-04T10:49:33.640Z,99223.34
2023-02-04T10:52:03.417Z,99226.17
2023-02-04T10:54:38.438Z,99223.73
2023-02-04T10:57:24.749Z,99230.06
2023-02-04T10:59:55.208Z,99234.29
2023-02-04T11:02:34.928Z,99234.45
2023-02-04T11:05:02.790Z,99236.98
2023-02-04T11:07:30.471Z,99244.40
2023-02-04T11:09:57.927Z,99239.05
2023-02-04T11:12:43.910Z,99244.61
2023-02-04T11:15:38.706Z,99245.20
2023-02-04T11:18:20.624Z,99252.00
2023-02-04T11:20:53.106Z,99249.93
2023-02-04T11:23:26.041Z,99252.48
2023-02-04T11:26:13.574Z,99265.95
2023-02-04T11:29:09.921Z,99251.86
2023-02-04T11:31:51.482Z,99251.49
2023-02-04T11:34:22.018Z,99248.55
2023-02-04T11:37:12.375Z,99251.13
2023-02-04T11:39:42.454Z,99254.83
2023-02-04T11:42:26.983Z,99257.15
2023-02-04T11:44:58.340Z,99272.56
2023-02-04T11:47:27.276Z,99281.36
2023-02-04T11:49:59.910Z,99269.60
2023-02-04T11:52:26.758Z,99273.80
2023-02-04T11:55:00.353Z,99276.96
2023-02-04T11:57:27.908Z,99282.67
2023-02-04T11:59:55.553Z,99283.27
2023-02-04T12:02:26.193Z,99287.20
2023-02-04T12:04:56.240Z,99300.44
2023-02-04T12:07:30.194Z,99302.11
2023-02-04T12:09:57.986Z,99299.79
2023-02-04T12:12:27.390Z,99304.98
2023-02-04T12:15:38.786Z,99304.75
2023-02-04T12:18:08.131Z,99320.61
2023-02-04T12:20:37.101Z,99308.91
2023-02-04T12:23:04.639Z,99317.95
2023-02-04T12:25:32.528Z,99325.79
2023-02-04T12:27:59.751Z,99314.24
2023-02-04T12:30:27.437Z,99323.48
2023-02-04T12:32:54.270Z,99330.79
2023-02-04T12:35:21.062Z,99336.84
2023-02-04T12:37:48.056Z,99339.38
2023-02-04T12:40:20.158Z,99340.78
2023-02-04T12:42:47.196Z,99342.73
2023-02-04T12:45:16.094Z,99352.02
2023-02-04T12:47:43.811Z,99355.97
2023-02-04T12:50:13.009Z,99361.71
2023-02-04T12:52:40.251Z,99367.20
2023-02-04T12:55:09.117Z,99381.64
2023-02-04T12:57:36.011Z,99393.26
2023-02-04T13:00:03.335Z,99389.57
2023-02-04T13:02:30.613Z,99402.76
2023-02-04T13:04:57.490Z,99418.48
2023-02-04T13:07:24.519Z,99416.30
2023-02-04T13:09:51.324Z,99413.32
2023-02-04T13:12:18.216Z,99415.77
2023-02-04T13:14:45.053Z,99409.53
2023-02-04T13:17:12.208Z,99416.02
2023-02-04T13:19:39.032Z,99419.83
2023-02-04T13:22:05.819Z,99415.16
2023-02-04T13:24:32.735Z,99408.88
2023-02-04T13:26:59.652Z,99409.98
2023-02-04T13:29:26.929Z,99417.94
2023-02-04T13:31:53.798Z,99416.88
2023-02-04T13:34:20.650Z,99415.93
2023-02-04T13:36:48.494Z,99419.14
2023-02-04T13:39:15.340Z,99420.02
2023-02-04T13:41:42.818Z,99415.80
2023-02-04T13:44:09.642Z,99425.67
2023-02-04T13:46:36.454Z,99427.95
2023-02-04T13:49:03.697Z,99427.30
2023-02-04T13:51:30.905Z,99434.19
2023-02-04T13:53:59.462Z,99431.50
2023-02-04T13:56:27.567Z,99435.81
2023-02-04T13:58:54.465Z,99443.95
2023-02-04T14:01:21.377Z,99445.34
2023-02-04T14:03:48.181Z,99444.30
2023-02-04T14:06:15.314Z,99444.81
2023-02-04T14:08:42.008Z,99449.12
2023-02-04T14:11:08.828Z,99461.67
2023-02-04T14:13:35.849Z,99457.02
2023-02-04T14:16:02.600Z,99454.76
2023-02-04T14:18:29.402Z,99461.16
2023-02-04T14:20:56.250Z,99455.00
2023-02-04T14:23:23.975Z,99462.53
2023-02-04T14:25:50.900Z,99463.20
2023-02-04T14:28:17.731Z,99465.33
2023-02-04T14:30:44.610Z,99466.43
2023-02-04T14:33:12.617Z,99466.48
2023-02-04T14:35:39.389Z,99466.64
2023-02-04T14:38:06.221Z,99469.88
2023-02-04T14:40:33.226Z,99470.98
2023-02-04T14:43:00.159Z,99469.23
2023-02-04T14:45:27.045Z,99469.89
2023-02-04T14:47:57.101Z,99472.25
2023-02-04T14:50:27.202Z,99488.10
2023-02-04T14:52:57.001Z,99491.80
2023-02-04T14:55:27.456Z,99490.66
2023-02-04T14:57:54.436Z,99489.38
2023-02-04T15:00:21.783Z,99490.56
2023-02-04T15:02:48.629Z,99489.36
2023-02-04T15:05:15.673Z,99493.55
2023-02-04T15:07:42.513Z,99501.27
2023-02-04T15:10:10.669Z,99497.70
2023-02-04T15:12:37.707Z,99501.80
2023-02-04T15:15:05.761Z,99502.81
2023-02-04T15:17:32.568Z,99506.60
2023-02-04T15:19:59.453Z,99521.33
2023-02-04T15:22:26.253Z,99525.02
2023-02-04T15:24:53.042Z,99523.95
2023-02-04T15:27:19.873Z,99530.80
2023-02-04T15:29:46.634Z,99536.87
2023-02-04T15:32:13.476Z,99541.56
2023-02-04T15:34:41.522Z,99542.20
2023-02-04T15:37:10.936Z,99551.14
2023-02-04T15:39:38.879Z,99551.57
2023-02-04T15:42:05.881Z,99554.34
2023-02-04T15:44:32.984Z,99563.53
2023-02-04T15:46:59.753Z,99561.34
2023-02-04T15:49:26.588Z,99564.23
2023-02-04T15:51:53.466Z,99569.27
2023-02-04T15:54:20.247Z,99566.50
2023-02-04T15:56:47.396Z,99568.59
2023-02-04T15:59:15.979Z,99568.06
2023-02-04T16:01:42.720Z,99577.41
2023-02-04T16:04:10.024Z,99583.83
2023-02-04T16:06:36.805Z,99585.64
2023-02-04T16:09:04.982Z,99596.94
2023-02-04T16:11:33.116Z,99598.52
2023-02-04T16:13:59.924Z,99594.24
2023-02-04T16:16:26.741Z,99596.00
2023-02-04T16:18:53.643Z,99591.45
2023-02-04T16:21:20.414Z,99596.13
2023-02-04T16:23:47.478Z,99598.13
2023-02-04T16:26:14.410Z,99601.30
2023-02-04T16:28:41.169Z,99604.89
2023-02-04T16:31:10.211Z,99605.19
2023-02-04T16:33:37.201Z,99604.69
2023-02-04T16:36:08.144Z,99602.05
2023-02-04T16:38:36.719Z,99600.56
2023-02-04T16:41:03.761Z,99599.80
2023-02-04T16:43:30.636Z,99599.65
2023-02-04T16:45:57.379Z,99599.82
2023-02-04T16:48:24.411Z,99595.65
2023-02-04T16:50:51.244Z,99597.98
2023-02-04T16:53:18.069Z,99600.97
2023-02-04T16:55:46.356Z,99599.06
2023-02-04T16:58:13.789Z,99601.90
2023-02-04T17:00:45.335Z,99606.83
2023-02-04T17:03:12.978Z,99612.48
2023-02-04T17:05:40.991Z,99610.35
2023-02-04T17:08:08.647Z,99616.33
2023-02-04T17:10:49.695Z,99613.01
2023-02-04T17:13:16.576Z,99618.52
2023-02-04T17:15:43.440Z,99618.05
2023-02-04T17:18:10.272Z,99612.69
2023-02-04T17:20:37.550Z,99612.22
2023-02-04T17:23:04.394Z,99610.94
2023-02-04T17:25:31.516Z,99614.55
2023-02-04T17:27:58.590Z,99614.75
2023-02-04T17:30:25.441Z,99618.41
2023-02-04T17:32:52.230Z,99619.88
2023-02-04T17:35:19.501Z,99618.92
2023-02-04T17:37:46.306Z,99617.06
2023-02-04T17:40:13.193Z,99611.69
2023-02-04T17:42:41.159Z,99610.65
2023-02-04T17:45:14.150Z,99614.82
2023-02-04T17:47:41.698Z,99616.20
2023-02-04T17:50:11.570Z,99618.34
2023-02-04T17:52:38.301Z,99622.02
2023-02-04T17:55:22.510Z,99623.92
2023-02-04T17:57:50.103Z,99626.60
2023-02-04T18:00:21.347Z,99627.02
2023-02-04T18:02:51.162Z,99623.98
2023-02-04T18:05:22.405Z,99627.36
2023-02-04T18:08:11.462Z,99632.78
2023-02-04T18:10:41.875Z,99631.20
2023-02-04T18:13:17.608Z,99623.61
2023-02-04T18:15:56.354Z,99618.94
2023-02-04T18:18:32.101Z,99621.77
2023-02-04T18:21:14.720Z,99619.45
2023-02-04T18:23:41.794Z,99624.08
2023-02-04T18:26:24.070Z,99626.63
2023-02-04T18:28:51.056Z,99626.54
2023-02-04T18:31:28.904Z,99631.08
2023-02-04T18:33:57.398Z,99636.59
2023-02-04T18:36:27.423Z,99634.32
2023-02-04T18:38:55.684Z,99632.59
2023-02-04T18:41:31.565Z,99633.31
2023-02-04T18:44:17.661Z,99633.40
2023-02-04T18:46:47.998Z,99632.45
2023-02-04T18:49:27.567Z,99629.30
2023-02-04T18:51:55.492Z,99631.57
2023-02-04T18:54:30.243Z,99628.07
2023-02-04T18:57:13.859Z,99633.27
2023-02-04T18:59:41.334Z,99630.33
2023-02-04T19:02:36.525Z,99630.85
2023-02-04T19:05:26.499Z,99628.73
2023-02-04T19:08:17.674Z,99633.63
2023-02-04T19:10:44.965Z,99630.37
2023-02-04T19:13:19.476Z,99625.91
2023-02-04T19:15:54.332Z,99620.96
2023-02-04T19:18:34.600Z,99616.89
2023-02-04T19:21:20.070Z,99630.25
2023-02-04T19:23:47.372Z,99639.31
2023-02-04T19:26:32.297Z,99654.95
2023-02-04T19:28:59.579Z,99674.50
2023-02-04T19:31:34.538Z,99677.11
2023-02-04T19:34:21.235Z,99682.52
2023-02-04T19:36:48.041Z,99679.80
2023-02-04T19:39:37.057Z,99686.52
2023-02-04T19:42:17.680Z,99689.65
2023-02-04T19:44:46.454Z,99689.23
2023-02-04T19:47:28.915Z,99691.61
2023-02-04T19:50:02.974Z,99691.59
2023-02-04T19:52:35.588Z,99694.84
2023-02-04T19:55:24.395Z,99697.23
2023-02-04T19:57:55.004Z,99705.79
2023-02-04T20:00:23.332Z,99703.52
2023-02-04T20:02:51.026Z,99708.06
2023-02-04T20:05:20.692Z,99713.69
2023-02-04T20:07:47.479Z,99714.58
2023-02-04T20:10:27.481Z,99718.91
2023-02-04T20:13:18.462Z,99719.73
2023-02-04T20:15:45.308Z,99728.14
2023-02-04T20:18:23.091Z,99722.10
2023-02-04T20:20:49.862Z,99722.71
2023-02-04T20:23:34.629Z,99725.45
2023-02-04T20:26:01.840Z,99732.59
2023-02-04T20:28:41.150Z,99729.95
2023-02-04T20:31:21.201Z,99730.48
2023-02-04T20:33:50.783Z,99727.20
2023-02-04T20:36:26.403Z,99727.92
2023-02-04T20:39:25.312Z,99731.65
2023-02-04T20:41:52.269Z,99728.40
2023-02-04T20:44:34.880Z,99735.29
2023-02-04T20:47:19.605Z,99736.86
2023-02-04T20:50:29.334Z,99740.70
2023-02-04T20:53:23.139Z,99740.98
2023-02-04T20:55:55.617Z,99745.55
2023-02-04T20:58:27.263Z,99745.00
2023-02-04T21:00:56.242Z,99738.99
2023-02-04T21:03:26.522Z,99742.47
2023-02-04T21:05:55.289Z,99743.44
2023-02-04T21:08:29.623Z,99748.46
2023-02-04T21:10:58.392Z,99754.95
2023-02-04T21:13:25.613Z,99755.41
2023-02-04T21:15:52.779Z,99762.39
2023-02-04T21:18:20.487Z,99766.60
2023-02-04T21:20:47.296Z,99761.83
2023-02-04T21:23:14.142Z,99763.37
2023-02-04T21:25:41.007Z,99762.45
2023-02-04T21:28:07.869Z,99762.41
2023-02-04T21:30:34.728Z,99763.02
2023-02-04T21:33:02.575Z,99763.86
2023-02-04T21:35:29.565Z,99761.68
2023-02-04T21:37:59.173Z,99764.92
2023-02-04T21:40:26.917Z,99767.48
2023-02-04T21:42:54.378Z,99775.29
2023-02-04T21:45:25.674Z,99776.17
2023-02-04T21:47:53.111Z,99783.63
2023-02-04T21:50:22.379Z,99785.69
2023-02-04T21:52:49.611Z,99789.26
2023-02-04T21:55:19.310Z,99788.98
2023-02-04T21:57:46.442Z,99785.80
2023-02-04T22:00:14.196Z,99785.42
2023-02-04T22:02:41.050Z,99793.77
2023-02-04T22:05:08.968Z,99800.48
2023-02-04T22:07:37.194Z,99801.83
2023-02-04T22:10:07.219Z,99802.10
2023-02-04T22:12:34.466Z,99799.67
2023-02-04T22:15:03.340Z,99804.94
2023-02-04T22:17:31.095Z,99806.66
2023-02-04T22:19:57.945Z,99807.04
2023-02-04T22:22:24.677Z,99809.91
2023-02-04T22:24:51.450Z,99810.63
2023-02-04T22:27:18.338Z,99811.96
2023-02-04T22:29:48.057Z,99815.56
2023-02-04T22:32:14.900Z,99816.13
2023-02-04T22:34:42.278Z,99816.70
2023-02-04T22:37:09.139Z,99820.70
2023-02-04T22:39:36.015Z,99818.38
2023-02-04T22:42:02.968Z,99818.34
2023-02-04T22:44:29.930Z,99821.30
2023-02-04T22:46:56.856Z,99822.01
2023-02-04T22:49:23.638Z,99823.50
2023-02-04T22:51:50.470Z,99829.16
2023-02-04T22:54:17.402Z,99834.05
2023-02-04T22:56:44.481Z,99830.48
2023-02-04T22:59:11.255Z,99834.25
2023-02-04T23:01:38.115Z,99833.56
2023-02-04T23:04:04.920Z,99843.46
2023-02-04T23:06:32.044Z,99851.74
2023-02-04T23:08:58.960Z,99858.21
2023-02-04T23:11:25.834Z,99856.69
2023-02-04T23:13:52.710Z,99862.31
2023-02-04T23:16:19.687Z,99861.52
2023-02-04T23:18:46.765Z,99867.75
2023-02-04T23:21:14.686Z,99873.69
2023-02-04T23:23:42.340Z,99875.42
2023-02-04T23:26:09.385Z,99878.08
2023-02-04T23:28:36.295Z,99880.52
2023-02-04T23:31:03.339Z,99879.84
2023-02-04T23:33:30.160Z,99881.95
2023-02-04T23:35:57.400Z,99879.04
2023-02-04T23:38:24.803Z,99883.77
2023-02-04T23:40:52.035Z,99885.52
2023-02-04T23:43:19.195Z,99885.38
2023-02-04T23:45:46.498Z,99884.70
2023-02-04T23:48:13.313Z,99882.87
2023-02-04T23:50:40.070Z,99885.17
2023-02-04T23:53:06.901Z,99887.00
2023-02-04T23:55:34.085Z,99891.60
2023-02-04T23:58:01.043Z,99887.77
